Portada
METAR-TAF:

METAR-TAF

Aeroports :

Gwalior, Índia

latitud: 26-17-36N, longitud: 78-13-40E, altitud: 188 m

Observació

L'informe es va fer fa 1 hora i 40 minuts, a les 16:30 UTC
Vent 1 kt amb direcció variable
Temperatura 21°C
Humitat 40%
Pressió 1015 hPa
Visibilitat: 6000 m
Cel clar

METAR: VIGR 221630Z VRB01KT 6000 SKC 21/07 Q1015 NOSIG

Hora: 23:40 (18:10 UTC)

Pronòstic

L'informe es va fer fa 8 hores i 40 minuts, a les 09:30 UTC
Pronòstic vàlid del 22 a les 12 UTC al 23 a les 00 UTC
Vent 7 kt del Oest/Nord-Oest
Visibilitat: 6000 m
Escasses núvols a una alçada de 4000 ft
Evolucionant progressivament
l' 22 a les 22 UTC al 22 a les 24 UTC
Vent 2 kt amb direcció variable
Visibilitat: 4000 m

TAF: VIGR 220930Z 2212/2300 30007KT 6000 FEW040 BECMG 2222/2224 VRB02KT 4000 HZ/BR NSC

Observacions i pronòstics meteorològics de més de 4000 aeroports (METAR i TAF).

Les estacions disponibles són els punts grocs i vermells al mapa.

Posi el ratolí al punt desitjat per veure el nom de l'estació.

Feu clic per veure les observacions i els pronòstics meteorològics.

Per canviar el mapa: feu clic els botons verds amb una creu de color negre per apropar; al botó verd amb un guió per allunyar la imatge; o en les fletxes verdes per a mapes adjacents.


METAR-TAF: